YM Enlightenment — D5HJ2 — position and weather

sailwx.info

Track history (hours):
 
Tides and Currents Weather Stations Pressure Air Temp Water Temp Dewpoint Dewpoint Depression Visibility Wind Speed Wind Dir Waves Ship Positions

YM Enlightenment

Last reported at 2017-Oct-16 02:21 UTC. Time now 2017-Oct-20 01:24 UTC.
Position N 48°16' W 006°51'.

Length 259 m; draft 11.2 m.

Type: Ship (hazmat cat A). MMSI: 636016703.

Date/timePositionNaut miles runAvg speedWind from/ knotsBaromVisibWave heightAir tempDewpointWater temp
2017-Oct-16 02:21N 48°16' W 006°51'611.1
2017-Oct-16 01:48N 48°21' W 006°55'411.4
2017-Oct-16 01:29N 48°24' W 006°58'511.3
2017-Oct-16 01:00N 48°29' W 007°03'711.3
2017-Oct-16 00:23N 48°34' W 007°10'411.2
2017-Oct-15 23:59N 48°37' W 007°14'711.1
2017-Oct-15 23:23N 48°43' W 007°20'711.1
2017-Oct-15 22:43N 48°48' W 007°28'211.3
2017-Oct-15 22:30N 48°50' W 007°30'611.4
2017-Oct-15 21:59N 48°55' W 007°35'15817.7
2017-Oct-15 13:04N 49°59' W 003°52'219.1
2017-Oct-15 12:59N 49°60' W 003°50'1019.0
2017-Oct-15 12:27N 50°04' W 003°36'919.3
2017-Oct-15 12:01N 50°12' W 003°31'1019.5
2017-Oct-15 11:31N 50°21' W 003°27'4 9.0
2017-Oct-15 11:01N 50°25' W 003°24'917.2
2017-Oct-15 10:31N 50°26' W 003°10'1019.7
2017-Oct-15 10:01N 50°26' W 002°55'1020.0
2017-Oct-15 09:31N 50°26' W 002°39'1220.6
2017-Oct-15 08:57N 50°27' W 002°21'1120.4
2017-Oct-15 08:24N 50°27' W 002°03'820.0
2017-Oct-15 08:01N 50°27' W 001°51'1019.6
2017-Oct-15 07:31N 50°28' W 001°36'1019.1
2017-Oct-15 07:00N 50°29' W 001°20'918.4
2017-Oct-15 06:31N 50°29' W 001°07'917.9
2017-Oct-15 06:01N 50°30' W 000°53'917.8
2017-Oct-15 05:30N 50°30' W 000°38'917.7
2017-Oct-15 05:01N 50°30' W 000°25'918.0
2017-Oct-15 04:30N 50°31' W 000°10'918.1
2017-Oct-15 04:00N 50°32' E 000°04'918.4
2017-Oct-15 03:30N 50°35' E 000°17'918.9
2017-Oct-15 03:01N 50°38' E 000°31'1019.5
2017-Oct-15 02:30N 50°43' E 000°45'1020.3
2017-Oct-15 02:01N 50°49' E 000°58'1020.6
2017-Oct-15 01:31N 50°56' E 001°10'1020.9
2017-Oct-15 01:01N 51°03' E 001°23'1020.7
2017-Oct-15 00:31N 51°09' E 001°36'1019.3
2017-Oct-15 00:01N 51°17' E 001°43'919.0
2017-Oct-14 23:31N 51°27' E 001°45'918.8
2017-Oct-14 23:01N 51°36' E 001°45'918.5
2017-Oct-14 22:30N 51°45' E 001°44'611.8
2017-Oct-14 22:01N 51°50' E 001°39'816.9
2017-Oct-14 21:31N 51°44' E 001°30'1019.2
2017-Oct-14 21:00N 51°37' E 001°19'918.5
2017-Oct-14 20:30N 51°32' E 001°07'816.9
2017-Oct-14 20:00N 51°29' E 000°54'1017.0
2017-Oct-14 19:23N 51°30' E 000°37'4 9.5
2017-Oct-14 18:55N 51°30' E 000°30'0 0.1
2017-Oct-14 18:17N 51°30' E 000°30'0 0.0
2017-Oct-14 18:00N 51°30' E 000°30'0 0.0
2017-Oct-14 16:35N 51°30' E 000°30'0 0.0
2017-Oct-14 16:25N 51°30' E 000°30'0 0.0
2017-Oct-14 15:07N 51°30' E 000°30'0 0.0
2017-Oct-14 14:42N 51°30' E 000°30'0 0.0
2017-Oct-14 14:29N 51°30' E 000°30'11 0.9
2017-Oct-14 02:42N 51°29' E 000°47'317.9
2017-Oct-14 02:30N 51°30' E 000°52'714.3
2017-Oct-14 02:00N 51°31' E 001°03'815.1
2017-Oct-14 01:30N 51°34' E 001°14'917.8
2017-Oct-14 01:00N 51°40' E 001°25'917.9
2017-Oct-14 00:30N 51°48' E 001°33'612.9
2017-Oct-14 00:00N 51°52' E 001°41'2 3.6
2017-Oct-13 23:30N 51°53' E 001°41'0 0.6
2017-Oct-13 22:59N 51°54' E 001°40'0 0.0
2017-Oct-13 22:29N 51°54' E 001°40'0 0.0
2017-Oct-13 21:59N 51°54' E 001°40'0 0.0
2017-Oct-13 21:29N 51°54' E 001°40'0 0.0
2017-Oct-13 20:59N 51°54' E 001°40'0 0.1
2017-Oct-13 20:29N 51°54' E 001°40'0 0.0
2017-Oct-13 19:59N 51°54' E 001°40'0 0.0
2017-Oct-13 19:29N 51°54' E 001°40'0 0.0
2017-Oct-13 18:59N 51°54' E 001°40'0 0.1
2017-Oct-13 18:29N 51°54' E 001°40'0 0.1
2017-Oct-13 17:59N 51°54' E 001°40'0 0.1
2017-Oct-13 17:29N 51°54' E 001°40'0 0.1
2017-Oct-13 16:59N 51°54' E 001°40'0 0.4
2017-Oct-13 16:29N 51°54' E 001°40'0 0.2
2017-Oct-13 15:59N 51°53' E 001°40'0 0.1
2017-Oct-13 15:29N 51°53' E 001°40'1 1.1
2017-Oct-13 15:00N 51°53' E 001°41'510.0
2017-Oct-13 14:30N 51°50' E 001°48'612.0
2017-Oct-13 14:00N 51°44' E 001°48'612.3
2017-Oct-13 13:30N 51°38' E 001°50'612.4
2017-Oct-13 13:00N 51°33' E 001°54'612.3
2017-Oct-13 12:30N 51°28' E 002°00'612.1
2017-Oct-13 12:00N 51°23' E 002°07'612.4
2017-Oct-13 11:30N 51°21' E 002°16'611.9
2017-Oct-13 11:00N 51°22' E 002°26'612.1
2017-Oct-13 10:30N 51°23' E 002°35'611.4
2017-Oct-13 09:58N 51°22' E 002°45'4 9.3
2017-Oct-13 09:30N 51°22' E 002°52'816.5
2017-Oct-13 09:00N 51°24' E 003°05'917.1
2017-Oct-13 08:30N 51°24' E 003°18'917.3
2017-Oct-13 08:01N 51°26' E 003°32'4 8.5
2017-Oct-13 07:30N 51°26' E 003°39'611.7
2017-Oct-13 07:00N 51°22' E 003°45'611.7
2017-Oct-13 06:30N 51°22' E 003°54'611.6
2017-Oct-13 06:00N 51°26' E 004°00'611.2
2017-Oct-13 05:30N 51°22' E 004°06'4 8.6
2017-Oct-13 05:00N 51°22' E 004°13'3 5.3
2017-Oct-13 04:31N 51°20' E 004°16'0 0.0
2017-Oct-13 04:01N 51°20' E 004°16'0 0.0
2017-Oct-13 03:31N 51°20' E 004°16'0 0.0
2017-Oct-13 03:00N 51°20' E 004°16'0 0.0
2017-Oct-13 02:30N 51°20' E 004°16'0 0.0
2017-Oct-13 02:00N 51°20' E 004°16'0 0.0
2017-Oct-13 01:27N 51°20' E 004°16'0 0.0
2017-Oct-13 01:01N 51°20' E 004°16'0 0.0
2017-Oct-13 00:27N 51°20' E 004°16'0 0.0
2017-Oct-13 00:00N 51°20' E 004°16'0 0.0
2017-Oct-12 23:30N 51°20' E 004°16'0 0.0
2017-Oct-12 22:56N 51°20' E 004°16'0 0.0
2017-Oct-12 22:31N 51°20' E 004°16'0 0.0
2017-Oct-12 22:01N 51°20' E 004°16'0 0.0
2017-Oct-12 21:30N 51°20' E 004°16'0 0.0
2017-Oct-12 21:00N 51°20' E 004°17'0 0.0
2017-Oct-12 20:29N 51°20' E 004°16'0 0.0
2017-Oct-12 20:01N 51°20' E 004°16'0 0.0
2017-Oct-12 19:31N 51°20' E 004°16'0 0.0
2017-Oct-12 19:01N 51°20' E 004°16'0 0.0
2017-Oct-12 18:31N 51°20' E 004°16'0 0.0
2017-Oct-12 18:01N 51°20' E 004°16'0 0.0
2017-Oct-12 17:30N 51°20' E 004°16'0 0.0
2017-Oct-12 16:59N 51°20' E 004°16'0 0.0
2017-Oct-12 16:30N 51°20' E 004°16'0 0.0
2017-Oct-12 16:00N 51°20' E 004°16'0 0.0
2017-Oct-12 15:31N 51°20' E 004°16'0 0.0
2017-Oct-12 15:01N 51°20' E 004°16'0 0.0
2017-Oct-12 14:30N 51°20' E 004°16'0 0.0
2017-Oct-12 14:00N 51°20' E 004°16'0 0.0
2017-Oct-12 13:31N 51°20' E 004°16'0 0.0
2017-Oct-12 13:00N 51°20' E 004°16'0 0.0
2017-Oct-12 12:31N 51°20' E 004°16'0 0.0
2017-Oct-12 12:01N 51°20' E 004°16'0 0.0
2017-Oct-12 11:30N 51°20' E 004°16'0 0.0
2017-Oct-12 11:01N 51°20' E 004°16'0 0.0
2017-Oct-12 10:28N 51°20' E 004°16'0 0.0
2017-Oct-12 09:56N 51°20' E 004°16'0 0.0
2017-Oct-12 09:30N 51°20' E 004°16'0 0.0
2017-Oct-12 09:00N 51°20' E 004°16'0 0.0
2017-Oct-12 08:30N 51°20' E 004°16'0 0.0
2017-Oct-12 08:00N 51°20' E 004°16'0 0.0
2017-Oct-12 07:28N 51°20' E 004°16'0 0.0
2017-Oct-12 06:58N 51°20' E 004°16'0 0.0
2017-Oct-12 06:28N 51°20' E 004°16'0 0.0
2017-Oct-12 05:59N 51°20' E 004°16'0 0.0
2017-Oct-12 05:30N 51°20' E 004°16'0 0.0
2017-Oct-12 04:59N 51°20' E 004°16'0 0.0
2017-Oct-12 04:31N 51°20' E 004°16'0 0.0
2017-Oct-12 04:01N 51°20' E 004°16'0 0.0
2017-Oct-12 03:31N 51°20' E 004°16'0 0.0
2017-Oct-12 03:01N 51°20' E 004°16'0 0.0
2017-Oct-12 02:31N 51°20' E 004°16'0 0.0
2017-Oct-12 02:00N 51°20' E 004°16'0 0.1
2017-Oct-12 01:30N 51°20' E 004°16'1 2.1
2017-Oct-12 01:00N 51°21' E 004°15'3 6.1
2017-Oct-12 00:30N 51°24' E 004°13'611.5
2017-Oct-12 00:00N 51°22' E 004°03'5 9.0
2017-Oct-11 23:30N 51°26' E 003°59'714.5
2017-Oct-11 23:00N 51°21' E 003°51'611.8
2017-Oct-11 22:30N 51°23' E 003°43'611.0
2017-Oct-11 22:00N 51°26' E 003°34'510.0
2017-Oct-11 21:30N 51°25' E 003°27'816.3
2017-Oct-11 21:00N 51°24' E 003°14'816.6
2017-Oct-11 20:31N 51°25' E 003°00'713.3
2017-Oct-11 20:01N 51°31' E 003°04'815.4
2017-Oct-11 19:30N 51°37' E 003°11'815.3
2017-Oct-11 19:00N 51°45' E 003°15'5 9.6
2017-Oct-11 18:30N 51°49' E 003°17'21811.8
2017-Oct-10 23:58N 53°35' E 008°32'0 0.0
2017-Oct-10 23:28N 53°35' E 008°32'0 0.0
2017-Oct-10 22:58N 53°35' E 008°32'0 0.0
2017-Oct-10 22:28N 53°35' E 008°32'0 0.0
2017-Oct-10 21:58N 53°35' E 008°32'0 0.0
2017-Oct-10 21:28N 53°35' E 008°32'0 0.0
2017-Oct-10 20:58N 53°35' E 008°32'0 0.0
2017-Oct-10 20:28N 53°35' E 008°32'0 0.0
2017-Oct-10 19:58N 53°35' E 008°32'0 0.0
2017-Oct-10 19:28N 53°35' E 008°32'0 0.0
2017-Oct-10 18:58N 53°35' E 008°32'0 0.0
2017-Oct-10 18:28N 53°35' E 008°32'0 0.0
2017-Oct-10 17:58N 53°35' E 008°32'0 0.0
2017-Oct-10 17:28N 53°35' E 008°32'0 0.0
2017-Oct-10 16:58N 53°35' E 008°32'0 0.0
2017-Oct-10 16:28N 53°35' E 008°32'0 0.0
2017-Oct-10 15:58N 53°35' E 008°32'0 0.0
2017-Oct-10 15:28N 53°35' E 008°32'0 0.0
2017-Oct-10 14:58N 53°35' E 008°32'0 0.0
2017-Oct-10 13:58N 53°35' E 008°32'0 0.0
2017-Oct-10 13:28N 53°35' E 008°32'0 0.0
2017-Oct-10 12:58N 53°35' E 008°32'0 0.0
2017-Oct-10 12:28N 53°35' E 008°32'0 0.0
2017-Oct-10 11:58N 53°35' E 008°32'0 0.0
2017-Oct-10 11:28N 53°35' E 008°32'0 0.0
2017-Oct-10 10:58N 53°35' E 008°32'0 0.0
2017-Oct-10 10:28N 53°35' E 008°32'0 0.0
2017-Oct-10 09:58N 53°35' E 008°32'0 0.0
2017-Oct-10 09:28N 53°35' E 008°32'0 0.0
2017-Oct-10 08:58N 53°35' E 008°32'0 0.0
2017-Oct-10 08:31N 53°35' E 008°32'0 0.0
2017-Oct-10 07:58N 53°35' E 008°32'0 0.0
2017-Oct-10 07:31N 53°35' E 008°32'0 0.0
2017-Oct-10 07:01N 53°35' E 008°32'0 0.0
2017-Oct-10 06:31N 53°35' E 008°32'0 0.0
2017-Oct-10 06:01N 53°35' E 008°32'0 0.0
2017-Oct-10 05:31N 53°35' E 008°32'0 0.0
2017-Oct-10 05:01N 53°35' E 008°32'0 0.0
2017-Oct-10 04:31N 53°35' E 008°32'0 0.0
2017-Oct-10 03:58N 53°35' E 008°32'0 0.0
2017-Oct-10 03:31N 53°35' E 008°32'0 0.0
2017-Oct-10 03:01N 53°35' E 008°32'0 0.0
2017-Oct-10 02:31N 53°35' E 008°32'0 0.2
2017-Oct-10 02:01N 53°35' E 008°32'4 8.8
2017-Oct-10 01:31N 53°38' E 008°26'1019.2
2017-Oct-10 01:00N 53°44' E 008°14'1019.1
2017-Oct-10 00:30N 53°51' E 008°02'815.4
2017-Oct-10 00:00N 53°52' E 007°49'510.5
2017-Oct-09 23:30N 53°53' E 007°40'5 9.7
2017-Oct-09 23:00N 53°54' E 007°32'7316.6
2017-Oct-09 18:35N 53°35' E 005°32'319.6
2017-Oct-09 18:27N 53°35' E 005°28'919.5
2017-Oct-09 18:00N 53°32' E 005°14'1019.3
2017-Oct-09 17:30N 53°29' E 004°59'1019.0
2017-Oct-09 17:00N 53°25' E 004°45'1018.8
2017-Oct-09 16:29N 53°16' E 004°37'1418.9
2017-Oct-09 15:45N 53°04' E 004°26'518.8
2017-Oct-09 15:31N 52°60' E 004°22'918.6
2017-Oct-09 15:01N 52°52' E 004°15'918.0
2017-Oct-09 14:30N 52°45' E 004°05'918.5
2017-Oct-09 14:01N 52°40' E 003°52'918.0
2017-Oct-09 13:30N 52°34' E 003°41'1018.0
2017-Oct-09 12:56N 52°26' E 003°31'6117.2
2017-Oct-09 09:24N 51°39' E 002°28'717.1
2017-Oct-09 09:00N 51°34' E 002°20'917.4
2017-Oct-09 08:31N 51°27' E 002°11'917.1
2017-Oct-09 08:00N 51°19' E 002°07'816.9
2017-Oct-09 07:31N 51°12' E 001°59'917.9
2017-Oct-09 07:00N 51°08' E 001°47'918.0
2017-Oct-09 06:31N 51°02' E 001°36'918.4
2017-Oct-09 06:01N 50°54' E 001°27'918.7
2017-Oct-09 05:31N 50°46' E 001°23'918.1
2017-Oct-09 05:01N 50°38' E 001°15'1318.2
2017-Oct-09 04:18N 50°30' E 000°59'818.2
2017-Oct-09 03:51N 50°28' E 000°47'618.1
2017-Oct-09 03:30N 50°26' E 000°37'918.0
2017-Oct-09 03:00N 50°23' E 000°24'918.0
2017-Oct-09 02:30N 50°21' E 000°10'918.1
2017-Oct-09 02:01N 50°19' W 000°03'918.3
2017-Oct-09 01:30N 50°19' W 000°18'918.9
2017-Oct-09 01:01N 50°20' W 000°33'1019.8
2017-Oct-09 00:30N 50°20' W 000°48'1020.6
2017-Oct-09 00:00N 50°21' W 001°04'1121.3
2017-Oct-08 23:30N 50°22' W 001°21'1121.6
2017-Oct-08 23:00N 50°22' W 001°38'1122.0
2017-Oct-08 22:30N 50°22' W 001°55'1122.2
2017-Oct-08 22:01N 50°23' W 002°12'1122.1
2017-Oct-08 21:31N 50°23' W 002°30'1121.1
2017-Oct-08 21:01N 50°24' W 002°46'1121.0
2017-Oct-08 20:31N 50°24' W 003°03'1020.7
2017-Oct-08 20:00N 50°25' W 003°19'611.6
2017-Oct-08 19:30N 50°23' W 003°27'611.4
2017-Oct-08 19:00N 50°17' W 003°29'815.7
2017-Oct-08 18:30N 50°09' W 003°33'918.9
2017-Oct-08 18:00N 50°02' W 003°42'1020.0
2017-Oct-08 17:30N 49°58' W 003°57'1019.8
2017-Oct-08 17:00N 49°55' W 004°11'1019.7
2017-Oct-08 16:30N 49°50' W 004°24'1019.9
2017-Oct-08 16:00N 49°45' W 004°38'1019.8
2017-Oct-08 15:30N 49°42' W 004°52'  
Track history (hours):
 
Tides and Currents Weather Stations Pressure Air Temp Water Temp Dewpoint Dewpoint Depression Visibility Wind Speed Wind Dir Waves Ship Positions

YM Enlightenment

Last reported at 2017-Oct-16 02:21 UTC. Time now 2017-Oct-20 01:24 UTC.
Position N 48°16' W 006°51'.

Length 259 m; draft 11.2 m.

Type: Ship (hazmat cat A). MMSI: 636016703.

Date/timePositionNaut miles runAvg speedWind from/ knotsBaromVisibWave heightAir tempDewpointWater temp
2017-Oct-16 02:21N 48°16' W 006°51'611.1
2017-Oct-16 01:48N 48°21' W 006°55'411.4
2017-Oct-16 01:29N 48°24' W 006°58'511.3
2017-Oct-16 01:00N 48°29' W 007°03'711.3
2017-Oct-16 00:23N 48°34' W 007°10'411.2
2017-Oct-15 23:59N 48°37' W 007°14'711.1
2017-Oct-15 23:23N 48°43' W 007°20'711.1
2017-Oct-15 22:43N 48°48' W 007°28'211.3
2017-Oct-15 22:30N 48°50' W 007°30'611.4
2017-Oct-15 21:59N 48°55' W 007°35'15817.7
2017-Oct-15 13:04N 49°59' W 003°52'219.1
2017-Oct-15 12:59N 49°60' W 003°50'1019.0
2017-Oct-15 12:27N 50°04' W 003°36'919.3
2017-Oct-15 12:01N 50°12' W 003°31'1019.5
2017-Oct-15 11:31N 50°21' W 003°27'4 9.0
2017-Oct-15 11:01N 50°25' W 003°24'917.2
2017-Oct-15 10:31N 50°26' W 003°10'1019.7
2017-Oct-15 10:01N 50°26' W 002°55'1020.0
2017-Oct-15 09:31N 50°26' W 002°39'1220.6
2017-Oct-15 08:57N 50°27' W 002°21'1120.4
2017-Oct-15 08:24N 50°27' W 002°03'820.0
2017-Oct-15 08:01N 50°27' W 001°51'1019.6
2017-Oct-15 07:31N 50°28' W 001°36'1019.1
2017-Oct-15 07:00N 50°29' W 001°20'918.4
2017-Oct-15 06:31N 50°29' W 001°07'917.9
2017-Oct-15 06:01N 50°30' W 000°53'917.8
2017-Oct-15 05:30N 50°30' W 000°38'917.7
2017-Oct-15 05:01N 50°30' W 000°25'918.0
2017-Oct-15 04:30N 50°31' W 000°10'918.1
2017-Oct-15 04:00N 50°32' E 000°04'918.4
2017-Oct-15 03:30N 50°35' E 000°17'918.9
2017-Oct-15 03:01N 50°38' E 000°31'1019.5
2017-Oct-15 02:30N 50°43' E 000°45'1020.3
2017-Oct-15 02:01N 50°49' E 000°58'1020.6
2017-Oct-15 01:31N 50°56' E 001°10'1020.9
2017-Oct-15 01:01N 51°03' E 001°23'1020.7
2017-Oct-15 00:31N 51°09' E 001°36'1019.3
2017-Oct-15 00:01N 51°17' E 001°43'919.0
2017-Oct-14 23:31N 51°27' E 001°45'918.8
2017-Oct-14 23:01N 51°36' E 001°45'918.5
2017-Oct-14 22:30N 51°45' E 001°44'611.8
2017-Oct-14 22:01N 51°50' E 001°39'816.9
2017-Oct-14 21:31N 51°44' E 001°30'1019.2
2017-Oct-14 21:00N 51°37' E 001°19'918.5
2017-Oct-14 20:30N 51°32' E 001°07'816.9
2017-Oct-14 20:00N 51°29' E 000°54'1017.0
2017-Oct-14 19:23N 51°30' E 000°37'4 9.5
2017-Oct-14 18:55N 51°30' E 000°30'0 0.1
2017-Oct-14 18:17N 51°30' E 000°30'0 0.0
2017-Oct-14 18:00N 51°30' E 000°30'0 0.0
2017-Oct-14 16:35N 51°30' E 000°30'0 0.0
2017-Oct-14 16:25N 51°30' E 000°30'0 0.0
2017-Oct-14 15:07N 51°30' E 000°30'0 0.0
2017-Oct-14 14:42N 51°30' E 000°30'0 0.0
2017-Oct-14 14:29N 51°30' E 000°30'11 0.9
2017-Oct-14 02:42N 51°29' E 000°47'317.9
2017-Oct-14 02:30N 51°30' E 000°52'714.3
2017-Oct-14 02:00N 51°31' E 001°03'815.1
2017-Oct-14 01:30N 51°34' E 001°14'917.8
2017-Oct-14 01:00N 51°40' E 001°25'917.9
2017-Oct-14 00:30N 51°48' E 001°33'612.9
2017-Oct-14 00:00N 51°52' E 001°41'2 3.6
2017-Oct-13 23:30N 51°53' E 001°41'0 0.6
2017-Oct-13 22:59N 51°54' E 001°40'0 0.0
2017-Oct-13 22:29N 51°54' E 001°40'0 0.0
2017-Oct-13 21:59N 51°54' E 001°40'0 0.0
2017-Oct-13 21:29N 51°54' E 001°40'0 0.0
2017-Oct-13 20:59N 51°54' E 001°40'0 0.1
2017-Oct-13 20:29N 51°54' E 001°40'0 0.0
2017-Oct-13 19:59N 51°54' E 001°40'0 0.0
2017-Oct-13 19:29N 51°54' E 001°40'0 0.0
2017-Oct-13 18:59N 51°54' E 001°40'0 0.1
2017-Oct-13 18:29N 51°54' E 001°40'0 0.1
2017-Oct-13 17:59N 51°54' E 001°40'0 0.1
2017-Oct-13 17:29N 51°54' E 001°40'0 0.1
2017-Oct-13 16:59N 51°54' E 001°40'0 0.4
2017-Oct-13 16:29N 51°54' E 001°40'0 0.2
2017-Oct-13 15:59N 51°53' E 001°40'0 0.1
2017-Oct-13 15:29N 51°53' E 001°40'1 1.1
2017-Oct-13 15:00N 51°53' E 001°41'510.0
2017-Oct-13 14:30N 51°50' E 001°48'612.0
2017-Oct-13 14:00N 51°44' E 001°48'612.3
2017-Oct-13 13:30N 51°38' E 001°50'612.4
2017-Oct-13 13:00N 51°33' E 001°54'612.3
2017-Oct-13 12:30N 51°28' E 002°00'612.1
2017-Oct-13 12:00N 51°23' E 002°07'612.4
2017-Oct-13 11:30N 51°21' E 002°16'611.9
2017-Oct-13 11:00N 51°22' E 002°26'612.1
2017-Oct-13 10:30N 51°23' E 002°35'611.4
2017-Oct-13 09:58N 51°22' E 002°45'4 9.3
2017-Oct-13 09:30N 51°22' E 002°52'816.5
2017-Oct-13 09:00N 51°24' E 003°05'917.1
2017-Oct-13 08:30N 51°24' E 003°18'917.3
2017-Oct-13 08:01N 51°26' E 003°32'4 8.5
2017-Oct-13 07:30N 51°26' E 003°39'611.7
2017-Oct-13 07:00N 51°22' E 003°45'611.7
2017-Oct-13 06:30N 51°22' E 003°54'611.6
2017-Oct-13 06:00N 51°26' E 004°00'611.2
2017-Oct-13 05:30N 51°22' E 004°06'4 8.6
2017-Oct-13 05:00N 51°22' E 004°13'3 5.3
2017-Oct-13 04:31N 51°20' E 004°16'0 0.0
2017-Oct-13 04:01N 51°20' E 004°16'0 0.0
2017-Oct-13 03:31N 51°20' E 004°16'0 0.0
2017-Oct-13 03:00N 51°20' E 004°16'0 0.0
2017-Oct-13 02:30N 51°20' E 004°16'0 0.0
2017-Oct-13 02:00N 51°20' E 004°16'0 0.0
2017-Oct-13 01:27N 51°20' E 004°16'0 0.0
2017-Oct-13 01:01N 51°20' E 004°16'0 0.0
2017-Oct-13 00:27N 51°20' E 004°16'0 0.0
2017-Oct-13 00:00N 51°20' E 004°16'0 0.0
2017-Oct-12 23:30N 51°20' E 004°16'0 0.0
2017-Oct-12 22:56N 51°20' E 004°16'0 0.0
2017-Oct-12 22:31N 51°20' E 004°16'0 0.0
2017-Oct-12 22:01N 51°20' E 004°16'0 0.0
2017-Oct-12 21:30N 51°20' E 004°16'0 0.0
2017-Oct-12 21:00N 51°20' E 004°17'0 0.0
2017-Oct-12 20:29N 51°20' E 004°16'0 0.0
2017-Oct-12 20:01N 51°20' E 004°16'0 0.0
2017-Oct-12 19:31N 51°20' E 004°16'0 0.0
2017-Oct-12 19:01N 51°20' E 004°16'0 0.0
2017-Oct-12 18:31N 51°20' E 004°16'0 0.0
2017-Oct-12 18:01N 51°20' E 004°16'0 0.0
2017-Oct-12 17:30N 51°20' E 004°16'0 0.0
2017-Oct-12 16:59N 51°20' E 004°16'0 0.0
2017-Oct-12 16:30N 51°20' E 004°16'0 0.0
2017-Oct-12 16:00N 51°20' E 004°16'0 0.0
2017-Oct-12 15:31N 51°20' E 004°16'0 0.0
2017-Oct-12 15:01N 51°20' E 004°16'0 0.0
2017-Oct-12 14:30N 51°20' E 004°16'0 0.0
2017-Oct-12 14:00N 51°20' E 004°16'0 0.0
2017-Oct-12 13:31N 51°20' E 004°16'0 0.0
2017-Oct-12 13:00N 51°20' E 004°16'0 0.0
2017-Oct-12 12:31N 51°20' E 004°16'0 0.0
2017-Oct-12 12:01N 51°20' E 004°16'0 0.0
2017-Oct-12 11:30N 51°20' E 004°16'0 0.0
2017-Oct-12 11:01N 51°20' E 004°16'0 0.0
2017-Oct-12 10:28N 51°20' E 004°16'0 0.0
2017-Oct-12 09:56N 51°20' E 004°16'0 0.0
2017-Oct-12 09:30N 51°20' E 004°16'0 0.0
2017-Oct-12 09:00N 51°20' E 004°16'0 0.0
2017-Oct-12 08:30N 51°20' E 004°16'0 0.0
2017-Oct-12 08:00N 51°20' E 004°16'0 0.0
2017-Oct-12 07:28N 51°20' E 004°16'0 0.0
2017-Oct-12 06:58N 51°20' E 004°16'0 0.0
2017-Oct-12 06:28N 51°20' E 004°16'0 0.0
2017-Oct-12 05:59N 51°20' E 004°16'0 0.0
2017-Oct-12 05:30N 51°20' E 004°16'0 0.0
2017-Oct-12 04:59N 51°20' E 004°16'0 0.0
2017-Oct-12 04:31N 51°20' E 004°16'0 0.0
2017-Oct-12 04:01N 51°20' E 004°16'0 0.0
2017-Oct-12 03:31N 51°20' E 004°16'0 0.0
2017-Oct-12 03:01N 51°20' E 004°16'0 0.0
2017-Oct-12 02:31N 51°20' E 004°16'0 0.0
2017-Oct-12 02:00N 51°20' E 004°16'0 0.1
2017-Oct-12 01:30N 51°20' E 004°16'1 2.1
2017-Oct-12 01:00N 51°21' E 004°15'3 6.1
2017-Oct-12 00:30N 51°24' E 004°13'611.5
2017-Oct-12 00:00N 51°22' E 004°03'5 9.0
2017-Oct-11 23:30N 51°26' E 003°59'714.5
2017-Oct-11 23:00N 51°21' E 003°51'611.8
2017-Oct-11 22:30N 51°23' E 003°43'611.0
2017-Oct-11 22:00N 51°26' E 003°34'510.0
2017-Oct-11 21:30N 51°25' E 003°27'816.3
2017-Oct-11 21:00N 51°24' E 003°14'816.6
2017-Oct-11 20:31N 51°25' E 003°00'713.3
2017-Oct-11 20:01N 51°31' E 003°04'815.4
2017-Oct-11 19:30N 51°37' E 003°11'815.3
2017-Oct-11 19:00N 51°45' E 003°15'5 9.6
2017-Oct-11 18:30N 51°49' E 003°17'21811.8
2017-Oct-10 23:58N 53°35' E 008°32'0 0.0
2017-Oct-10 23:28N 53°35' E 008°32'0 0.0
2017-Oct-10 22:58N 53°35' E 008°32'0 0.0
2017-Oct-10 22:28N 53°35' E 008°32'0 0.0
2017-Oct-10 21:58N 53°35' E 008°32'0 0.0
2017-Oct-10 21:28N 53°35' E 008°32'0 0.0
2017-Oct-10 20:58N 53°35' E 008°32'0 0.0
2017-Oct-10 20:28N 53°35' E 008°32'0 0.0
2017-Oct-10 19:58N 53°35' E 008°32'0 0.0
2017-Oct-10 19:28N 53°35' E 008°32'0 0.0
2017-Oct-10 18:58N 53°35' E 008°32'0 0.0
2017-Oct-10 18:28N 53°35' E 008°32'0 0.0
2017-Oct-10 17:58N 53°35' E 008°32'0 0.0
2017-Oct-10 17:28N 53°35' E 008°32'0 0.0
2017-Oct-10 16:58N 53°35' E 008°32'0 0.0
2017-Oct-10 16:28N 53°35' E 008°32'0 0.0
2017-Oct-10 15:58N 53°35' E 008°32'0 0.0
2017-Oct-10 15:28N 53°35' E 008°32'0 0.0
2017-Oct-10 14:58N 53°35' E 008°32'0 0.0
2017-Oct-10 13:58N 53°35' E 008°32'0 0.0
2017-Oct-10 13:28N 53°35' E 008°32'0 0.0
2017-Oct-10 12:58N 53°35' E 008°32'0 0.0
2017-Oct-10 12:28N 53°35' E 008°32'0 0.0
2017-Oct-10 11:58N 53°35' E 008°32'0 0.0
2017-Oct-10 11:28N 53°35' E 008°32'0 0.0
2017-Oct-10 10:58N 53°35' E 008°32'0 0.0
2017-Oct-10 10:28N 53°35' E 008°32'0 0.0
2017-Oct-10 09:58N 53°35' E 008°32'0 0.0
2017-Oct-10 09:28N 53°35' E 008°32'0 0.0
2017-Oct-10 08:58N 53°35' E 008°32'0 0.0
2017-Oct-10 08:31N 53°35' E 008°32'0 0.0
2017-Oct-10 07:58N 53°35' E 008°32'0 0.0
2017-Oct-10 07:31N 53°35' E 008°32'0 0.0
2017-Oct-10 07:01N 53°35' E 008°32'0 0.0
2017-Oct-10 06:31N 53°35' E 008°32'0 0.0
2017-Oct-10 06:01N 53°35' E 008°32'0 0.0
2017-Oct-10 05:31N 53°35' E 008°32'0 0.0
2017-Oct-10 05:01N 53°35' E 008°32'0 0.0
2017-Oct-10 04:31N 53°35' E 008°32'0 0.0
2017-Oct-10 03:58N 53°35' E 008°32'0 0.0
2017-Oct-10 03:31N 53°35' E 008°32'0 0.0
2017-Oct-10 03:01N 53°35' E 008°32'0 0.0
2017-Oct-10 02:31N 53°35' E 008°32'0 0.2
2017-Oct-10 02:01N 53°35' E 008°32'4 8.8
2017-Oct-10 01:31N 53°38' E 008°26'1019.2
2017-Oct-10 01:00N 53°44' E 008°14'1019.1
2017-Oct-10 00:30N 53°51' E 008°02'815.4
2017-Oct-10 00:00N 53°52' E 007°49'510.5
2017-Oct-09 23:30N 53°53' E 007°40'5 9.7
2017-Oct-09 23:00N 53°54' E 007°32'7316.6
2017-Oct-09 18:35N 53°35' E 005°32'319.6
2017-Oct-09 18:27N 53°35' E 005°28'919.5
2017-Oct-09 18:00N 53°32' E 005°14'1019.3
2017-Oct-09 17:30N 53°29' E 004°59'1019.0
2017-Oct-09 17:00N 53°25' E 004°45'1018.8
2017-Oct-09 16:29N 53°16' E 004°37'1418.9
2017-Oct-09 15:45N 53°04' E 004°26'518.8
2017-Oct-09 15:31N 52°60' E 004°22'918.6
2017-Oct-09 15:01N 52°52' E 004°15'918.0
2017-Oct-09 14:30N 52°45' E 004°05'918.5
2017-Oct-09 14:01N 52°40' E 003°52'918.0
2017-Oct-09 13:30N 52°34' E 003°41'1018.0
2017-Oct-09 12:56N 52°26' E 003°31'6117.2
2017-Oct-09 09:24N 51°39' E 002°28'717.1
2017-Oct-09 09:00N 51°34' E 002°20'917.4
2017-Oct-09 08:31N 51°27' E 002°11'917.1
2017-Oct-09 08:00N 51°19' E 002°07'816.9
2017-Oct-09 07:31N 51°12' E 001°59'917.9
2017-Oct-09 07:00N 51°08' E 001°47'918.0
2017-Oct-09 06:31N 51°02' E 001°36'918.4
2017-Oct-09 06:01N 50°54' E 001°27'918.7
2017-Oct-09 05:31N 50°46' E 001°23'918.1
2017-Oct-09 05:01N 50°38' E 001°15'1318.2
2017-Oct-09 04:18N 50°30' E 000°59'818.2
2017-Oct-09 03:51N 50°28' E 000°47'618.1
2017-Oct-09 03:30N 50°26' E 000°37'918.0
2017-Oct-09 03:00N 50°23' E 000°24'918.0
2017-Oct-09 02:30N 50°21' E 000°10'918.1
2017-Oct-09 02:01N 50°19' W 000°03'918.3
2017-Oct-09 01:30N 50°19' W 000°18'918.9
2017-Oct-09 01:01N 50°20' W 000°33'1019.8
2017-Oct-09 00:30N 50°20' W 000°48'1020.6
2017-Oct-09 00:00N 50°21' W 001°04'1121.3
2017-Oct-08 23:30N 50°22' W 001°21'1121.6
2017-Oct-08 23:00N 50°22' W 001°38'1122.0
2017-Oct-08 22:30N 50°22' W 001°55'1122.2
2017-Oct-08 22:01N 50°23' W 002°12'1122.1
2017-Oct-08 21:31N 50°23' W 002°30'1121.1
2017-Oct-08 21:01N 50°24' W 002°46'1121.0
2017-Oct-08 20:31N 50°24' W 003°03'1020.7
2017-Oct-08 20:00N 50°25' W 003°19'611.6
2017-Oct-08 19:30N 50°23' W 003°27'611.4
2017-Oct-08 19:00N 50°17' W 003°29'815.7
2017-Oct-08 18:30N 50°09' W 003°33'918.9
2017-Oct-08 18:00N 50°02' W 003°42'1020.0
2017-Oct-08 17:30N 49°58' W 003°57'1019.8
2017-Oct-08 17:00N 49°55' W 004°11'1019.7
2017-Oct-08 16:30N 49°50' W 004°24'1019.9
2017-Oct-08 16:00N 49°45' W 004°38'1019.8
2017-Oct-08 15:30N 49°42' W 004°52'  

Dump ship's entire track history